sensor_id;sensor_type;location;lat;lon;timestamp;temperature;humidity
1383;DHT22;685;47.196;11.880;2022-12-16T00:01:07;-0.40;99.90
1383;DHT22;685;47.196;11.880;2022-12-16T00:03:34;-0.40;99.90
1383;DHT22;685;47.196;11.880;2022-12-16T00:06:01;-0.50;99.90
1383;DHT22;685;47.196;11.880;2022-12-16T00:08:31;-0.40;99.90
1383;DHT22;685;47.196;11.880;2022-12-16T00:10:59;-0.50;99.90
1383;DHT22;685;47.196;11.880;2022-12-16T00:13:28;-0.50;99.90
1383;DHT22;685;47.196;11.880;2022-12-16T00:15:56;-0.40;99.90
1383;DHT22;685;47.196;11.880;2022-12-16T00:18:23;-0.40;99.90
1383;DHT22;685;47.196;11.880;2022-12-16T00:20:52;-0.40;99.90
1383;DHT22;685;47.196;11.880;2022-12-16T00:23:19;-0.60;99.90
1383;DHT22;685;47.196;11.880;2022-12-16T00:25:47;-0.60;99.90
1383;DHT22;685;47.196;11.880;2022-12-16T00:28:15;-0.60;99.90
1383;DHT22;685;47.196;11.880;2022-12-16T00:30:44;-0.50;99.90
1383;DHT22;685;47.196;11.880;2022-12-16T00:33:13;-0.50;99.90
1383;DHT22;685;47.196;11.880;2022-12-16T00:35:40;-0.60;99.90
1383;DHT22;685;47.196;11.880;2022-12-16T00:38:07;-0.60;99.90
1383;DHT22;685;47.196;11.880;2022-12-16T00:40:34;-0.50;99.90
1383;DHT22;685;47.196;11.880;2022-12-16T00:43:01;-0.50;99.90
1383;DHT22;685;47.196;11.880;2022-12-16T00:45:28;-0.50;99.90
1383;DHT22;685;47.196;11.880;2022-12-16T00:47:57;-0.50;99.90
1383;DHT22;685;47.196;11.880;2022-12-16T00:50:24;-0.60;99.90
1383;DHT22;685;47.196;11.880;2022-12-16T00:52:51;-0.70;99.90
1383;DHT22;685;47.196;11.880;2022-12-16T00:55:18;-0.90;99.90
1383;DHT22;685;47.196;11.880;2022-12-16T00:57:45;-0.90;99.90
1383;DHT22;685;47.196;11.880;2022-12-16T01:00:14;-0.70;99.90
1383;DHT22;685;47.196;11.880;2022-12-16T01:02:42;-0.70;99.90
1383;DHT22;685;47.196;11.880;2022-12-16T01:05:12;-0.60;99.90
1383;DHT22;685;47.196;11.880;2022-12-16T01:07:39;-0.60;99.90
1383;DHT22;685;47.196;11.880;2022-12-16T01:10:08;-0.50;99.90
1383;DHT22;685;47.196;11.880;2022-12-16T01:12:35;-0.40;99.90
1383;DHT22;685;47.196;11.880;2022-12-16T01:15:03;-0.50;99.90
1383;DHT22;685;47.196;11.880;2022-12-16T01:17:31;-0.50;99.90
1383;DHT22;685;47.196;11.880;2022-12-16T01:19:58;-0.40;99.90
1383;DHT22;685;47.196;11.880;2022-12-16T01:22:29;-0.40;99.90
1383;DHT22;685;47.196;11.880;2022-12-16T01:24:56;-0.30;99.90
1383;DHT22;685;47.196;11.880;2022-12-16T01:27:23;-0.30;99.90
1383;DHT22;685;47.196;11.880;2022-12-16T01:29:50;-0.30;99.90
1383;DHT22;685;47.196;11.880;2022-12-16T01:32:18;-0.40;99.90
1383;DHT22;685;47.196;11.880;2022-12-16T01:34:48;-0.50;99.90
1383;DHT22;685;47.196;11.880;2022-12-16T01:37:15;-0.60;99.90
1383;DHT22;685;47.196;11.880;2022-12-16T01:39:44;-0.50;99.90
1383;DHT22;685;47.196;11.880;2022-12-16T01:42:11;-0.40;99.90
1383;DHT22;685;47.196;11.880;2022-12-16T01:44:42;-0.30;99.90
1383;DHT22;685;47.196;11.880;2022-12-16T01:47:13;-0.20;99.90
1383;DHT22;685;47.196;11.880;2022-12-16T01:49:43;-0.20;99.90
1383;DHT22;685;47.196;11.880;2022-12-16T01:52:15;-0.10;99.90
1383;DHT22;685;47.196;11.880;2022-12-16T01:54:48;-0.10;99.90
1383;DHT22;685;47.196;11.880;2022-12-16T01:57:21;-0.10;99.90
1383;DHT22;685;47.196;11.880;2022-12-16T01:59:51;-0.10;99.90
1383;DHT22;685;47.196;11.880;2022-12-16T02:02:19;-0.20;99.90
1383;DHT22;685;47.196;11.880;2022-12-16T02:04:46;-0.20;99.90
1383;DHT22;685;47.196;11.880;2022-12-16T02:07:27;-0.20;99.90
1383;DHT22;685;47.196;11.880;2022-12-16T02:09:56;-0.20;99.90
1383;DHT22;685;47.196;11.880;2022-12-16T02:12:27;-0.20;99.90
1383;DHT22;685;47.196;11.880;2022-12-16T02:15:17;-0.10;99.90
1383;DHT22;685;47.196;11.880;2022-12-16T02:17:54;-0.10;99.90
1383;DHT22;685;47.196;11.880;2022-12-16T02:21:09;-0.10;99.90
1383;DHT22;685;47.196;11.880;2022-12-16T02:27:13;-0.20;99.90
1383;DHT22;685;47.196;11.880;2022-12-16T02:30:01;-0.20;99.90
1383;DHT22;685;47.196;11.880;2022-12-16T02:32:39;-0.20;99.90
1383;DHT22;685;47.196;11.880;2022-12-16T02:35:14;-0.20;99.90
1383;DHT22;685;47.196;11.880;2022-12-16T02:37:48;-0.30;99.90
1383;DHT22;685;47.196;11.880;2022-12-16T02:40:23;-0.30;99.90
1383;DHT22;685;47.196;11.880;2022-12-16T02:42:54;-0.20;99.90
1383;DHT22;685;47.196;11.880;2022-12-16T02:45:24;-0.30;99.90
1383;DHT22;685;47.196;11.880;2022-12-16T02:47:53;-0.20;99.90
1383;DHT22;685;47.196;11.880;2022-12-16T02:50:22;-0.20;99.90
1383;DHT22;685;47.196;11.880;2022-12-16T02:52:50;-0.20;99.90
1383;DHT22;685;47.196;11.880;2022-12-16T02:55:19;-0.10;99.90
1383;DHT22;685;47.196;11.880;2022-12-16T02:58:01;-0.30;99.90
1383;DHT22;685;47.196;11.880;2022-12-16T03:00:39;-0.40;99.90
1383;DHT22;685;47.196;11.880;2022-12-16T03:03:13;-0.40;99.90
1383;DHT22;685;47.196;11.880;2022-12-16T03:05:43;-0.30;99.90
1383;DHT22;685;47.196;11.880;2022-12-16T03:08:17;-0.30;99.90
1383;DHT22;685;47.196;11.880;2022-12-16T03:10:49;-0.30;99.90
1383;DHT22;685;47.196;11.880;2022-12-16T03:13:19;-0.30;99.90
1383;DHT22;685;47.196;11.880;2022-12-16T03:15:48;-0.30;99.90
1383;DHT22;685;47.196;11.880;2022-12-16T03:18:19;-0.20;99.90
1383;DHT22;685;47.196;11.880;2022-12-16T03:20:51;-0.20;99.90
1383;DHT22;685;47.196;11.880;2022-12-16T03:23:24;-0.20;99.90
1383;DHT22;685;47.196;11.880;2022-12-16T03:25:57;-0.40;99.90
1383;DHT22;685;47.196;11.880;2022-12-16T03:28:33;-0.30;99.90
1383;DHT22;685;47.196;11.880;2022-12-16T03:31:11;-0.40;99.90
1383;DHT22;685;47.196;11.880;2022-12-16T03:33:46;-0.40;99.90
1383;DHT22;685;47.196;11.880;2022-12-16T03:36:19;-0.20;99.90
1383;DHT22;685;47.196;11.880;2022-12-16T03:38:46;-0.10;99.90
1383;DHT22;685;47.196;11.880;2022-12-16T03:41:16;-0.30;99.90
1383;DHT22;685;47.196;11.880;2022-12-16T03:43:44;-0.20;99.90
1383;DHT22;685;47.196;11.880;2022-12-16T03:46:13;-0.40;99.90
1383;DHT22;685;47.196;11.880;2022-12-16T03:48:47;-0.40;99.90
1383;DHT22;685;47.196;11.880;2022-12-16T03:51:14;-0.40;99.90
1383;DHT22;685;47.196;11.880;2022-12-16T03:53:42;-0.30;99.90
1383;DHT22;685;47.196;11.880;2022-12-16T03:56:09;-0.30;99.90
1383;DHT22;685;47.196;11.880;2022-12-16T03:58:36;-0.30;99.90
1383;DHT22;685;47.196;11.880;2022-12-16T04:01:04;-0.20;99.90
1383;DHT22;685;47.196;11.880;2022-12-16T04:03:31;-0.20;99.90
1383;DHT22;685;47.196;11.880;2022-12-16T04:06:00;-0.30;99.90
1383;DHT22;685;47.196;11.880;2022-12-16T04:08:26;-0.40;99.90
1383;DHT22;685;47.196;11.880;2022-12-16T04:10:53;-0.40;99.90
1383;DHT22;685;47.196;11.880;2022-12-16T04:13:38;-0.50;99.90
1383;DHT22;685;47.196;11.880;2022-12-16T04:16:22;-0.60;99.90
1383;DHT22;685;47.196;11.880;2022-12-16T04:19:15;-0.50;99.90
1383;DHT22;685;47.196;11.880;2022-12-16T04:22:03;-0.50;99.90
1383;DHT22;685;47.196;11.880;2022-12-16T04:24:47;-0.40;99.90
1383;DHT22;685;47.196;11.880;2022-12-16T04:27:14;-0.30;99.90
1383;DHT22;685;47.196;11.880;2022-12-16T04:29:50;-0.40;99.90
1383;DHT22;685;47.196;11.880;2022-12-16T04:32:33;-0.40;99.90
1383;DHT22;685;47.196;11.880;2022-12-16T04:35:14;-0.30;99.90
1383;DHT22;685;47.196;11.880;2022-12-16T04:38:00;-0.30;99.90
1383;DHT22;685;47.196;11.880;2022-12-16T04:40:44;-0.40;99.90
1383;DHT22;685;47.196;11.880;2022-12-16T04:43:29;-0.20;99.90
1383;DHT22;685;47.196;11.880;2022-12-16T04:46:13;-0.30;99.90
1383;DHT22;685;47.196;11.880;2022-12-16T04:48:57;-0.30;99.90
1383;DHT22;685;47.196;11.880;2022-12-16T04:51:41;-0.40;99.90
1383;DHT22;685;47.196;11.880;2022-12-16T04:54:27;-0.50;99.90
1383;DHT22;685;47.196;11.880;2022-12-16T04:57:11;-0.40;99.90
1383;DHT22;685;47.196;11.880;2022-12-16T04:59:56;-0.30;99.90
1383;DHT22;685;47.196;11.880;2022-12-16T05:02:36;-0.30;99.90
1383;DHT22;685;47.196;11.880;2022-12-16T05:05:21;-0.40;99.90
1383;DHT22;685;47.196;11.880;2022-12-16T05:08:05;-0.40;99.90
1383;DHT22;685;47.196;11.880;2022-12-16T05:10:51;-0.40;99.90
1383;DHT22;685;47.196;11.880;2022-12-16T05:13:35;-0.50;99.90
1383;DHT22;685;47.196;11.880;2022-12-16T05:16:19;-0.60;99.90
1383;DHT22;685;47.196;11.880;2022-12-16T05:19:03;-0.60;99.90
1383;DHT22;685;47.196;11.880;2022-12-16T05:21:47;-0.60;99.90
1383;DHT22;685;47.196;11.880;2022-12-16T05:24:32;-0.50;99.90
1383;DHT22;685;47.196;11.880;2022-12-16T05:27:17;-0.40;99.90
1383;DHT22;685;47.196;11.880;2022-12-16T05:30:01;-0.40;99.90
1383;DHT22;685;47.196;11.880;2022-12-16T05:32:47;-0.40;99.90
1383;DHT22;685;47.196;11.880;2022-12-16T05:35:32;-0.30;99.90
1383;DHT22;685;47.196;11.880;2022-12-16T05:38:16;-0.30;99.90
1383;DHT22;685;47.196;11.880;2022-12-16T05:41:00;-0.30;99.90
1383;DHT22;685;47.196;11.880;2022-12-16T05:43:45;-0.40;99.90
1383;DHT22;685;47.196;11.880;2022-12-16T05:46:44;-0.40;99.90
1383;DHT22;685;47.196;11.880;2022-12-16T05:49:28;-0.50;99.90
1383;DHT22;685;47.196;11.880;2022-12-16T05:52:13;-0.40;99.90
1383;DHT22;685;47.196;11.880;2022-12-16T05:54:57;-0.30;99.90
1383;DHT22;685;47.196;11.880;2022-12-16T05:57:42;-0.30;99.90
1383;DHT22;685;47.196;11.880;2022-12-16T06:00:27;-0.30;99.90
1383;DHT22;685;47.196;11.880;2022-12-16T06:03:12;-0.40;99.90
1383;DHT22;685;47.196;11.880;2022-12-16T06:05:56;-0.30;99.90
1383;DHT22;685;47.196;11.880;2022-12-16T06:08:40;-0.30;99.90
1383;DHT22;685;47.196;11.880;2022-12-16T06:11:24;-0.40;99.90
1383;DHT22;685;47.196;11.880;2022-12-16T06:14:08;-0.50;99.90
1383;DHT22;685;47.196;11.880;2022-12-16T06:16:53;-0.40;99.90
1383;DHT22;685;47.196;11.880;2022-12-16T06:19:34;-0.30;99.90
1383;DHT22;685;47.196;11.880;2022-12-16T06:22:18;-0.30;99.90
1383;DHT22;685;47.196;11.880;2022-12-16T06:25:03;-0.30;99.90
1383;DHT22;685;47.196;11.880;2022-12-16T06:27:59;-0.10;99.90
1383;DHT22;685;47.196;11.880;2022-12-16T06:30:43;-0.20;99.90
1383;DHT22;685;47.196;11.880;2022-12-16T06:33:29;-0.30;99.90
1383;DHT22;685;47.196;11.880;2022-12-16T06:36:14;-0.30;99.90
1383;DHT22;685;47.196;11.880;2022-12-16T06:38:58;-0.20;99.90
1383;DHT22;685;47.196;11.880;2022-12-16T06:41:42;-0.10;99.90
1383;DHT22;685;47.196;11.880;2022-12-16T06:44:26;0.10;99.90
1383;DHT22;685;47.196;11.880;2022-12-16T06:47:10;0.00;99.90
1383;DHT22;685;47.196;11.880;2022-12-16T06:49:56;0.00;99.90
1383;DHT22;685;47.196;11.880;2022-12-16T06:52:41;0.10;99.90
1383;DHT22;685;47.196;11.880;2022-12-16T06:55:26;0.00;99.90
1383;DHT22;685;47.196;11.880;2022-12-16T06:58:10;0.10;99.90
1383;DHT22;685;47.196;11.880;2022-12-16T07:00:54;0.00;99.90
1383;DHT22;685;47.196;11.880;2022-12-16T07:03:38;0.00;99.90
1383;DHT22;685;47.196;11.880;2022-12-16T07:06:24;0.00;99.90
1383;DHT22;685;47.196;11.880;2022-12-16T07:09:08;0.00;99.90
1383;DHT22;685;47.196;11.880;2022-12-16T07:11:49;0.10;99.90
1383;DHT22;685;47.196;11.880;2022-12-16T07:14:34;0.00;99.90
1383;DHT22;685;47.196;11.880;2022-12-16T07:17:18;0.00;99.90
1383;DHT22;685;47.196;11.880;2022-12-16T07:20:02;0.00;99.90
1383;DHT22;685;47.196;11.880;2022-12-16T07:22:47;0.00;99.90
1383;DHT22;685;47.196;11.880;2022-12-16T07:25:32;0.10;99.90
1383;DHT22;685;47.196;11.880;2022-12-16T07:28:16;0.00;99.90
1383;DHT22;685;47.196;11.880;2022-12-16T07:31:00;0.00;99.90
1383;DHT22;685;47.196;11.880;2022-12-16T07:33:44;0.20;99.90
1383;DHT22;685;47.196;11.880;2022-12-16T07:36:28;0.20;99.90
1383;DHT22;685;47.196;11.880;2022-12-16T07:39:14;0.30;99.90
1383;DHT22;685;47.196;11.880;2022-12-16T07:41:58;0.40;99.90
1383;DHT22;685;47.196;11.880;2022-12-16T07:44:43;0.40;99.90
1383;DHT22;685;47.196;11.880;2022-12-16T07:47:27;0.40;99.90
1383;DHT22;685;47.196;11.880;2022-12-16T07:50:11;0.20;99.90
1383;DHT22;685;47.196;11.880;2022-12-16T07:52:55;0.20;99.90
1383;DHT22;685;47.196;11.880;2022-12-16T07:55:41;0.20;99.90
1383;DHT22;685;47.196;11.880;2022-12-16T07:58:22;0.30;99.90
1383;DHT22;685;47.196;11.880;2022-12-16T08:01:06;0.30;99.90
1383;DHT22;685;47.196;11.880;2022-12-16T08:03:50;0.20;99.90
1383;DHT22;685;47.196;11.880;2022-12-16T08:06:35;0.20;99.90
1383;DHT22;685;47.196;11.880;2022-12-16T08:09:19;0.10;99.90
1383;DHT22;685;47.196;11.880;2022-12-16T08:12:04;0.10;99.90
1383;DHT22;685;47.196;11.880;2022-12-16T08:14:48;0.10;99.90
1383;DHT22;685;47.196;11.880;2022-12-16T08:17:32;0.10;99.90
1383;DHT22;685;47.196;11.880;2022-12-16T08:20:17;0.10;99.90
1383;DHT22;685;47.196;11.880;2022-12-16T08:23:01;0.10;99.90
1383;DHT22;685;47.196;11.880;2022-12-16T08:25:45;0.10;99.90
1383;DHT22;685;47.196;11.880;2022-12-16T08:28:30;0.10;99.90
1383;DHT22;685;47.196;11.880;2022-12-16T08:31:15;0.20;99.90
1383;DHT22;685;47.196;11.880;2022-12-16T08:34:00;0.30;99.90
1383;DHT22;685;47.196;11.880;2022-12-16T08:36:44;0.40;99.90
1383;DHT22;685;47.196;11.880;2022-12-16T08:39:29;0.50;99.90
1383;DHT22;685;47.196;11.880;2022-12-16T08:42:13;0.50;99.90
1383;DHT22;685;47.196;11.880;2022-12-16T08:44:58;0.60;99.90
1383;DHT22;685;47.196;11.880;2022-12-16T08:47:54;0.50;99.90
1383;DHT22;685;47.196;11.880;2022-12-16T08:50:39;0.50;99.90
1383;DHT22;685;47.196;11.880;2022-12-16T08:53:23;0.50;99.90
1383;DHT22;685;47.196;11.880;2022-12-16T08:56:07;0.50;99.90
1383;DHT22;685;47.196;11.880;2022-12-16T08:58:51;0.50;99.90
1383;DHT22;685;47.196;11.880;2022-12-16T09:01:37;0.50;99.90
1383;DHT22;685;47.196;11.880;2022-12-16T09:04:21;0.50;99.90
1383;DHT22;685;47.196;11.880;2022-12-16T09:07:06;0.60;99.90
1383;DHT22;685;47.196;11.880;2022-12-16T09:09:50;0.60;99.90
1383;DHT22;685;47.196;11.880;2022-12-16T09:12:34;0.60;99.90
1383;DHT22;685;47.196;11.880;2022-12-16T09:15:18;0.50;99.90
1383;DHT22;685;47.196;11.880;2022-12-16T09:18:04;0.50;99.90
1383;DHT22;685;47.196;11.880;2022-12-16T09:20:50;0.40;99.90
1383;DHT22;685;47.196;11.880;2022-12-16T09:23:34;0.50;99.90
1383;DHT22;685;47.196;11.880;2022-12-16T09:26:18;0.50;99.90
1383;DHT22;685;47.196;11.880;2022-12-16T09:29:02;0.50;99.90
1383;DHT22;685;47.196;11.880;2022-12-16T09:31:47;0.40;99.90
1383;DHT22;685;47.196;11.880;2022-12-16T09:34:32;0.40;99.90
1383;DHT22;685;47.196;11.880;2022-12-16T09:37:16;0.50;99.90
1383;DHT22;685;47.196;11.880;2022-12-16T09:40:01;0.60;99.90
1383;DHT22;685;47.196;11.880;2022-12-16T09:42:50;0.70;99.90
1383;DHT22;685;47.196;11.880;2022-12-16T09:45:42;0.60;99.90
1383;DHT22;685;47.196;11.880;2022-12-16T09:48:37;0.60;99.90
1383;DHT22;685;47.196;11.880;2022-12-16T09:51:25;0.60;99.90
1383;DHT22;685;47.196;11.880;2022-12-16T09:54:12;0.70;99.90
1383;DHT22;685;47.196;11.880;2022-12-16T09:56:59;0.70;99.90
1383;DHT22;685;47.196;11.880;2022-12-16T09:59:41;0.70;99.90
1383;DHT22;685;47.196;11.880;2022-12-16T10:02:30;0.60;99.90
1383;DHT22;685;47.196;11.880;2022-12-16T10:05:18;0.40;99.90
1383;DHT22;685;47.196;11.880;2022-12-16T10:08:11;0.50;99.90
1383;DHT22;685;47.196;11.880;2022-12-16T10:11:08;0.50;99.90
1383;DHT22;685;47.196;11.880;2022-12-16T10:13:58;0.60;99.90
1383;DHT22;685;47.196;11.880;2022-12-16T10:16:49;0.50;99.90
1383;DHT22;685;47.196;11.880;2022-12-16T10:19:45;0.50;99.90
1383;DHT22;685;47.196;11.880;2022-12-16T10:22:37;0.50;99.90
1383;DHT22;685;47.196;11.880;2022-12-16T10:25:27;0.50;99.90
1383;DHT22;685;47.196;11.880;2022-12-16T10:28:15;0.50;99.90
1383;DHT22;685;47.196;11.880;2022-12-16T10:31:01;0.60;99.90
1383;DHT22;685;47.196;11.880;2022-12-16T10:33:48;0.60;99.90
1383;DHT22;685;47.196;11.880;2022-12-16T10:36:35;0.60;99.90
1383;DHT22;685;47.196;11.880;2022-12-16T10:39:25;0.70;99.90
1383;DHT22;685;47.196;11.880;2022-12-16T10:42:20;0.70;99.90
1383;DHT22;685;47.196;11.880;2022-12-16T10:45:21;0.70;99.90
1383;DHT22;685;47.196;11.880;2022-12-16T10:48:08;0.60;99.90
1383;DHT22;685;47.196;11.880;2022-12-16T10:50:53;0.50;99.90
1383;DHT22;685;47.196;11.880;2022-12-16T10:53:38;0.50;99.90
1383;DHT22;685;47.196;11.880;2022-12-16T10:56:38;0.50;99.90
1383;DHT22;685;47.196;11.880;2022-12-16T10:59:35;0.60;99.90
1383;DHT22;685;47.196;11.880;2022-12-16T11:02:23;0.70;99.90
1383;DHT22;685;47.196;11.880;2022-12-16T11:05:32;0.70;99.90
1383;DHT22;685;47.196;11.880;2022-12-16T11:08:25;0.80;99.90
1383;DHT22;685;47.196;11.880;2022-12-16T11:11:20;0.70;99.90
1383;DHT22;685;47.196;11.880;2022-12-16T11:14:17;0.70;99.90
1383;DHT22;685;47.196;11.880;2022-12-16T11:17:17;0.60;99.90
1383;DHT22;685;47.196;11.880;2022-12-16T11:20:07;0.60;99.90
1383;DHT22;685;47.196;11.880;2022-12-16T11:23:17;0.60;99.90
1383;DHT22;685;47.196;11.880;2022-12-16T11:26:07;0.60;99.90
1383;DHT22;685;47.196;11.880;2022-12-16T11:29:09;0.60;99.90
1383;DHT22;685;47.196;11.880;2022-12-16T11:31:59;0.60;99.90
1383;DHT22;685;47.196;11.880;2022-12-16T11:34:49;0.70;99.90
1383;DHT22;685;47.196;11.880;2022-12-16T11:37:35;0.70;99.90
1383;DHT22;685;47.196;11.880;2022-12-16T11:40:21;0.60;99.90
1383;DHT22;685;47.196;11.880;2022-12-16T11:43:08;0.50;99.90
1383;DHT22;685;47.196;11.880;2022-12-16T11:45:55;0.50;99.90
1383;DHT22;685;47.196;11.880;2022-12-16T11:48:43;0.50;99.90
1383;DHT22;685;47.196;11.880;2022-12-16T11:51:34;0.50;99.90
1383;DHT22;685;47.196;11.880;2022-12-16T11:54:22;0.60;99.90
1383;DHT22;685;47.196;11.880;2022-12-16T11:57:16;0.70;99.90
1383;DHT22;685;47.196;11.880;2022-12-16T12:00:04;0.80;99.90
1383;DHT22;685;47.196;11.880;2022-12-16T12:02:53;0.80;99.90
1383;DHT22;685;47.196;11.880;2022-12-16T12:05:43;0.70;99.90
1383;DHT22;685;47.196;11.880;2022-12-16T12:08:36;0.60;99.90
1383;DHT22;685;47.196;11.880;2022-12-16T12:11:25;0.60;99.90
1383;DHT22;685;47.196;11.880;2022-12-16T12:14:19;0.70;99.90
1383;DHT22;685;47.196;11.880;2022-12-16T12:17:17;0.70;99.90
1383;DHT22;685;47.196;11.880;2022-12-16T12:20:28;0.60;99.90
1383;DHT22;685;47.196;11.880;2022-12-16T12:23:21;0.60;99.90
1383;DHT22;685;47.196;11.880;2022-12-16T12:26:12;0.50;99.90
1383;DHT22;685;47.196;11.880;2022-12-16T12:28:59;0.50;99.90
1383;DHT22;685;47.196;11.880;2022-12-16T12:31:49;0.50;99.90
1383;DHT22;685;47.196;11.880;2022-12-16T12:34:43;0.50;99.90
1383;DHT22;685;47.196;11.880;2022-12-16T12:37:33;0.50;99.90
1383;DHT22;685;47.196;11.880;2022-12-16T12:40:29;0.50;99.90
1383;DHT22;685;47.196;11.880;2022-12-16T12:43:27;0.50;99.90
1383;DHT22;685;47.196;11.880;2022-12-16T12:46:20;0.50;99.90
1383;DHT22;685;47.196;11.880;2022-12-16T12:49:13;0.50;99.90
1383;DHT22;685;47.196;11.880;2022-12-16T12:52:14;0.50;99.90
1383;DHT22;685;47.196;11.880;2022-12-16T12:55:05;0.50;99.90
1383;DHT22;685;47.196;11.880;2022-12-16T12:57:58;0.50;99.90
1383;DHT22;685;47.196;11.880;2022-12-16T13:00:48;0.60;99.90
1383;DHT22;685;47.196;11.880;2022-12-16T13:03:37;0.60;99.90
1383;DHT22;685;47.196;11.880;2022-12-16T13:06:23;0.70;99.90
1383;DHT22;685;47.196;11.880;2022-12-16T13:09:29;0.80;99.90
1383;DHT22;685;47.196;11.880;2022-12-16T13:12:26;0.80;99.90
1383;DHT22;685;47.196;11.880;2022-12-16T13:15:18;0.80;99.90
1383;DHT22;685;47.196;11.880;2022-12-16T13:18:22;0.80;99.90
1383;DHT22;685;47.196;11.880;2022-12-16T13:24:40;0.80;99.90
1383;DHT22;685;47.196;11.880;2022-12-16T13:27:27;0.90;99.90
1383;DHT22;685;47.196;11.880;2022-12-16T13:30:22;0.90;99.90
1383;DHT22;685;47.196;11.880;2022-12-16T13:33:21;0.80;99.90
1383;DHT22;685;47.196;11.880;2022-12-16T13:36:06;0.70;99.90
1383;DHT22;685;47.196;11.880;2022-12-16T13:38:54;0.80;99.90
1383;DHT22;685;47.196;11.880;2022-12-16T13:41:58;0.70;99.90
1383;DHT22;685;47.196;11.880;2022-12-16T13:44:56;0.70;99.90
1383;DHT22;685;47.196;11.880;2022-12-16T13:47:58;0.70;99.90
1383;DHT22;685;47.196;11.880;2022-12-16T13:50:45;0.80;99.90
1383;DHT22;685;47.196;11.880;2022-12-16T13:53:32;0.80;99.90
1383;DHT22;685;47.196;11.880;2022-12-16T13:56:22;0.80;99.90
1383;DHT22;685;47.196;11.880;2022-12-16T13:59:13;0.70;99.90
1383;DHT22;685;47.196;11.880;2022-12-16T14:02:10;0.60;99.90
1383;DHT22;685;47.196;11.880;2022-12-16T14:04:56;0.70;99.90
1383;DHT22;685;47.196;11.880;2022-12-16T14:07:42;0.60;99.90
1383;DHT22;685;47.196;11.880;2022-12-16T14:10:29;0.60;99.90
1383;DHT22;685;47.196;11.880;2022-12-16T14:13:19;0.60;99.90
1383;DHT22;685;47.196;11.880;2022-12-16T14:16:11;0.60;99.90
1383;DHT22;685;47.196;11.880;2022-12-16T14:19:10;0.60;99.90
1383;DHT22;685;47.196;11.880;2022-12-16T14:22:01;0.60;99.90
1383;DHT22;685;47.196;11.880;2022-12-16T14:24:49;0.60;99.90
1383;DHT22;685;47.196;11.880;2022-12-16T14:27:34;0.60;99.90
1383;DHT22;685;47.196;11.880;2022-12-16T14:30:20;0.50;99.90
1383;DHT22;685;47.196;11.880;2022-12-16T14:33:15;0.60;99.90
1383;DHT22;685;47.196;11.880;2022-12-16T14:36:00;0.60;99.90
1383;DHT22;685;47.196;11.880;2022-12-16T14:38:47;0.60;99.90
1383;DHT22;685;47.196;11.880;2022-12-16T14:41:41;0.60;99.90
1383;DHT22;685;47.196;11.880;2022-12-16T14:44:26;0.60;99.90
1383;DHT22;685;47.196;11.880;2022-12-16T14:47:15;0.50;99.90
1383;DHT22;685;47.196;11.880;2022-12-16T14:50:00;0.50;99.90
1383;DHT22;685;47.196;11.880;2022-12-16T14:52:44;0.60;99.90
1383;DHT22;685;47.196;11.880;2022-12-16T14:55:30;0.60;99.90
1383;DHT22;685;47.196;11.880;2022-12-16T14:58:17;0.60;99.90
1383;DHT22;685;47.196;11.880;2022-12-16T15:01:21;0.60;99.90
1383;DHT22;685;47.196;11.880;2022-12-16T15:04:11;0.70;99.90
1383;DHT22;685;47.196;11.880;2022-12-16T15:06:57;0.70;99.90
1383;DHT22;685;47.196;11.880;2022-12-16T15:09:43;0.60;99.90
1383;DHT22;685;47.196;11.880;2022-12-16T15:12:31;0.70;99.90
1383;DHT22;685;47.196;11.880;2022-12-16T15:15:25;0.80;99.90
1383;DHT22;685;47.196;11.880;2022-12-16T15:18:16;0.70;99.90
1383;DHT22;685;47.196;11.880;2022-12-16T15:21:01;0.60;99.90
1383;DHT22;685;47.196;11.880;2022-12-16T15:23:45;0.60;99.90
1383;DHT22;685;47.196;11.880;2022-12-16T15:26:31;0.70;99.90
1383;DHT22;685;47.196;11.880;2022-12-16T15:29:32;0.80;99.90
1383;DHT22;685;47.196;11.880;2022-12-16T15:32:32;0.70;99.90
1383;DHT22;685;47.196;11.880;2022-12-16T15:35:25;0.70;99.90
1383;DHT22;685;47.196;11.880;2022-12-16T15:38:11;0.60;99.90
1383;DHT22;685;47.196;11.880;2022-12-16T15:40:55;0.70;99.90
1383;DHT22;685;47.196;11.880;2022-12-16T15:43:40;0.70;99.90
1383;DHT22;685;47.196;11.880;2022-12-16T15:46:25;0.70;99.90
1383;DHT22;685;47.196;11.880;2022-12-16T15:49:22;0.70;99.90
1383;DHT22;685;47.196;11.880;2022-12-16T15:52:21;0.70;99.90
1383;DHT22;685;47.196;11.880;2022-12-16T15:55:22;0.70;99.90
1383;DHT22;685;47.196;11.880;2022-12-16T15:58:12;0.70;99.90
1383;DHT22;685;47.196;11.880;2022-12-16T16:00:58;0.70;99.90
1383;DHT22;685;47.196;11.880;2022-12-16T16:03:48;0.80;99.90
1383;DHT22;685;47.196;11.880;2022-12-16T16:06:34;0.80;99.90
1383;DHT22;685;47.196;11.880;2022-12-16T16:09:22;0.80;99.90
1383;DHT22;685;47.196;11.880;2022-12-16T16:12:08;0.80;99.90
1383;DHT22;685;47.196;11.880;2022-12-16T16:14:52;0.80;99.90
1383;DHT22;685;47.196;11.880;2022-12-16T16:17:37;0.80;99.90
1383;DHT22;685;47.196;11.880;2022-12-16T16:20:21;0.90;99.90
1383;DHT22;685;47.196;11.880;2022-12-16T16:23:07;0.80;99.90
1383;DHT22;685;47.196;11.880;2022-12-16T16:25:51;0.80;99.90
1383;DHT22;685;47.196;11.880;2022-12-16T16:28:36;0.70;99.90
1383;DHT22;685;47.196;11.880;2022-12-16T16:31:20;0.70;99.90
1383;DHT22;685;47.196;11.880;2022-12-16T16:34:05;0.60;99.90
1383;DHT22;685;47.196;11.880;2022-12-16T16:36:52;0.70;99.90
1383;DHT22;685;47.196;11.880;2022-12-16T16:39:39;0.70;99.90
1383;DHT22;685;47.196;11.880;2022-12-16T16:42:23;0.60;99.90
1383;DHT22;685;47.196;11.880;2022-12-16T16:45:09;0.60;99.90
1383;DHT22;685;47.196;11.880;2022-12-16T16:47:55;0.70;99.90
1383;DHT22;685;47.196;11.880;2022-12-16T16:50:44;0.70;99.90
1383;DHT22;685;47.196;11.880;2022-12-16T16:53:28;0.80;99.90
1383;DHT22;685;47.196;11.880;2022-12-16T16:56:14;0.70;99.90
1383;DHT22;685;47.196;11.880;2022-12-16T16:58:58;0.80;99.90
1383;DHT22;685;47.196;11.880;2022-12-16T17:01:42;0.90;99.90
1383;DHT22;685;47.196;11.880;2022-12-16T17:04:26;0.90;99.90
1383;DHT22;685;47.196;11.880;2022-12-16T17:07:16;0.80;99.90
1383;DHT22;685;47.196;11.880;2022-12-16T17:10:00;0.90;99.90
1383;DHT22;685;47.196;11.880;2022-12-16T17:12:46;0.80;99.90
1383;DHT22;685;47.196;11.880;2022-12-16T17:15:33;0.70;99.90
1383;DHT22;685;47.196;11.880;2022-12-16T17:18:21;0.60;99.90
1383;DHT22;685;47.196;11.880;2022-12-16T17:21:05;0.80;99.90
1383;DHT22;685;47.196;11.880;2022-12-16T17:23:49;0.80;99.90
1383;DHT22;685;47.196;11.880;2022-12-16T17:26:33;0.80;99.90
1383;DHT22;685;47.196;11.880;2022-12-16T17:29:21;0.70;99.90
1383;DHT22;685;47.196;11.880;2022-12-16T17:32:06;0.70;99.90
1383;DHT22;685;47.196;11.880;2022-12-16T17:34:51;0.60;99.90
1383;DHT22;685;47.196;11.880;2022-12-16T17:37:36;0.60;99.90
1383;DHT22;685;47.196;11.880;2022-12-16T17:40:20;0.60;99.90
1383;DHT22;685;47.196;11.880;2022-12-16T17:43:05;0.60;99.90
1383;DHT22;685;47.196;11.880;2022-12-16T17:45:58;0.70;99.90
1383;DHT22;685;47.196;11.880;2022-12-16T17:48:43;0.70;99.90
1383;DHT22;685;47.196;11.880;2022-12-16T17:51:27;0.80;99.90
1383;DHT22;685;47.196;11.880;2022-12-16T17:54:11;0.80;99.90
1383;DHT22;685;47.196;11.880;2022-12-16T17:56:56;0.60;99.90
1383;DHT22;685;47.196;11.880;2022-12-16T17:59:40;0.60;99.90
1383;DHT22;685;47.196;11.880;2022-12-16T18:02:26;0.70;99.90
1383;DHT22;685;47.196;11.880;2022-12-16T18:05:10;0.80;99.90